Terminal Aerodrome Forecast
Issued by NWS

Home | Current Version | Previous Version | Text Only | Print | Product List | Glossary On
Versions: 1 2 3 4 5 6 7 8 9 10 11 12 13 14 15 16 17 18 19 20 21 22 23 24 25 26 27 28 29 30 31 32 33 34 35 36 37 38 39 40 41 42 43 44 45 46
000
FTUS43 KGLD 121601 AAA
TAFMCK
TAF AMD
KMCK 121601Z 1216/1312 03008KT P6SM BKN010
     FM121800 05005KT P6SM BKN015
     FM122100 09008KT P6SM BKN025
     FM130000 11005KT 5SM BR OVC007
     FM130300 12008KT 2SM -FZDZ BR OVC004=

USA.gov is the U.S. government's official web portal to all federal, state and local government web resources and services.